Time;durP1;ratioP1;P1;durP2;ratioP2;P2;SDS_P1;SDS_P2;PMS_P1;PMS_P2;Temp;Humidity;BMP_temperature;BMP_pressure;BME280_temperature;BME280_humidity;BME280_pressure;Samples;Min_cycle;Max_cycle;Signal;HPM_P1;HPM_P2
2024/01/19 00:01:47;;;;;;;13.27;2.70;;;;;;;;;;6089957;23;20081;-80
2024/01/19 00:04:21;;;;;;;18.00;2.67;;;;;;;;;;6089189;23;20516;-80
2024/01/19 00:06:49;;;;;;;;;;;;;;;;;;6090432;23;20082;-79
2024/01/19 00:09:23;;;;;;;12.93;2.33;;;;;;;;;;6088744;23;19925;-79
2024/01/19 00:11:50;;;;;;;15.13;2.87;;;;;;;;;;6089050;23;20447;-80
2024/01/19 00:14:17;;;;;;;7.27;2.30;;;;;;;;;;6090968;23;20080;-79
2024/01/19 00:16:52;;;;;;;11.03;2.90;;;;;;;;;;6090490;23;20101;-80
2024/01/19 00:19:19;;;;;;;11.70;2.80;;;;;;;;;;6090037;23;20082;-80
2024/01/19 00:21:53;;;;;;;8.57;2.40;;;;;;;;;;6090049;23;20405;-80
2024/01/19 00:24:20;;;;;;;10.37;2.40;;;;;;;;;;6087501;23;20464;-80
2024/01/19 00:26:48;;;;;;;9.90;2.20;;;;;;;;;;6084815;23;20045;-79
2024/01/19 00:29:29;;;;;;;12.73;2.53;;;;;;;;;;6088712;23;20711;-77
2024/01/19 00:31:56;;;;;;;17.60;3.63;;;;;;;;;;6088392;23;20683;-80
2024/01/19 00:34:30;;;;;;;9.63;2.70;;;;;;;;;;6089996;23;20026;-79
2024/01/19 00:36:57;;;;;;;11.90;2.60;;;;;;;;;;6089162;23;20022;-79
2024/01/19 00:39:24;;;;;;;;;;;;;;;;;;6090633;23;20030;-77
2024/01/19 00:41:57;;;;;;;14.57;2.47;;;;;;;;;;6088910;23;19972;-77
2024/01/19 00:44:25;;;;;;;16.60;3.17;;;;;;;;;;6089751;23;20077;-79
2024/01/19 00:46:59;;;;;;;10.20;2.00;;;;;;;;;;6089138;23;20022;-79
2024/01/19 00:49:26;;;;;;;5.60;2.27;;;;;;;;;;6088994;23;20030;-79
2024/01/19 00:51:53;;;;;;;11.13;2.30;;;;;;;;;;6089667;23;20029;-79
2024/01/19 00:54:28;;;;;;;16.03;3.20;;;;;;;;;;6087775;23;20030;-79
2024/01/19 00:56:55;;;;;;;7.97;2.70;;;;;;;;;;6088652;23;20105;-79
2024/01/19 00:59:30;;;;;;;13.00;3.03;;;;;;;;;;6090299;23;20026;-79
2024/01/19 01:01:57;;;;;;;5.53;2.40;;;;;;;;;;6090179;23;20464;-79
2024/01/19 01:04:24;;;;;;;;;;;;;;;;;;6090485;23;20313;-79
2024/01/19 01:06:58;;;;;;;9.50;2.70;;;;;;;;;;6090567;23;19923;-82
2024/01/19 01:09:25;;;;;;;7.73;2.30;;;;;;;;;;6089044;23;20527;-79
2024/01/19 01:11:52;;;;;;;16.23;2.70;;;;;;;;;;6087024;23;20023;-80
2024/01/19 01:14:26;;;;;;;9.83;2.27;;;;;;;;;;6089527;23;20061;-80
2024/01/19 01:16:53;;;;;;;11.60;2.10;;;;;;;;;;6092348;23;20348;-82
2024/01/19 01:19:27;;;;;;;9.23;2.67;;;;;;;;;;6092568;23;20067;-81
2024/01/19 01:21:54;;;;;;;6.83;2.43;;;;;;;;;;6089290;23;20830;-81
2024/01/19 01:24:22;;;;;;;20.23;2.83;;;;;;;;;;6092007;23;20365;-81
2024/01/19 01:26:56;;;;;;;9.33;2.80;;;;;;;;;;6091633;23;20026;-79
2024/01/19 01:29:23;;;;;;;16.87;2.90;;;;;;;;;;6089254;23;20030;-81
2024/01/19 01:31:57;;;;;;;12.83;2.37;;;;;;;;;;6090982;23;20484;-79
2024/01/19 01:34:24;;;;;;;10.17;3.70;;;;;;;;;;6090306;23;20026;-81
2024/01/19 01:36:51;;;;;;;6.47;2.40;;;;;;;;;;6089464;23;20097;-79
2024/01/19 01:39:26;;;;;;;12.37;2.43;;;;;;;;;;6089894;23;20090;-81
2024/01/19 01:41:53;;;;;;;9.30;2.13;;;;;;;;;;6092162;23;20027;-80
2024/01/19 01:44:20;;;;;;;15.03;2.40;;;;;;;;;;6089366;23;20064;-79
2024/01/19 01:46:55;;;;;;;16.93;2.80;;;;;;;;;;6089312;23;20026;-79
2024/01/19 01:49:22;;;;;;;15.93;3.17;;;;;;;;;;6086357;23;20449;-79
2024/01/19 01:51:58;;;;;;;12.17;2.37;;;;;;;;;;6088606;23;20022;-81
2024/01/19 01:54:25;;;;;;;13.50;2.47;;;;;;;;;;6089500;23;20038;-79
2024/01/19 01:56:53;;;;;;;10.53;2.50;;;;;;;;;;6091506;23;20026;-79
2024/01/19 01:59:27;;;;;;;15.23;2.50;;;;;;;;;;6088773;23;20082;-80
2024/01/19 02:01:54;;;;;;;14.50;2.77;;;;;;;;;;6086853;23;20561;-80
2024/01/19 02:04:22;;;;;;;12.73;2.37;;;;;;;;;;6090094;23;20696;-79
2024/01/19 02:06:56;;;;;;;15.10;2.10;;;;;;;;;;6086508;23;20456;-79
2024/01/19 02:09:23;;;;;;;10.67;2.50;;;;;;;;;;6087844;23;20027;-79
2024/01/19 02:11:57;;;;;;;28.10;3.67;;;;;;;;;;6087372;23;20085;-80
2024/01/19 02:14:25;;;;;;;7.57;2.40;;;;;;;;;;6088800;23;20452;-79
2024/01/19 02:16:52;;;;;;;14.33;2.40;;;;;;;;;;6092928;23;20022;-79
2024/01/19 02:19:27;;;;;;;10.93;2.00;;;;;;;;;;6089812;23;20031;-80
2024/01/19 02:21:54;;;;;;;12.00;2.30;;;;;;;;;;6091656;23;20029;-80
2024/01/19 02:24:28;;;;;;;11.33;2.30;;;;;;;;;;6091228;23;20030;-80
2024/01/19 02:26:55;;;;;;;11.10;3.37;;;;;;;;;;6090304;23;20022;-79
2024/01/19 02:29:23;;;;;;;6.87;2.27;;;;;;;;;;6087203;23;20026;-79
2024/01/19 02:32:03;;;;;;;13.77;1.73;;;;;;;;;;6091784;23;20033;-79
2024/01/19 02:34:30;;;;;;;9.57;2.40;;;;;;;;;;6090182;23;20019;-81
2024/01/19 02:37:05;;;;;;;17.97;2.97;;;;;;;;;;6091217;23;20404;-81
2024/01/19 02:39:32;;;;;;;6.87;1.90;;;;;;;;;;6090691;23;20105;-81
2024/01/19 02:41:59;;;;;;;;;;;;;;;;;;6090050;23;20022;-81
2024/01/19 02:44:34;;;;;;;7.27;2.10;;;;;;;;;;6091760;23;19967;-81
2024/01/19 02:47:01;;;;;;;7.33;2.33;;;;;;;;;;6091346;23;20026;-79
2024/01/19 02:49:35;;;;;;;11.77;2.33;;;;;;;;;;6091164;23;20033;-81
2024/01/19 02:52:02;;;;;;;18.47;2.43;;;;;;;;;;6091634;23;20034;-81
2024/01/19 02:54:29;;;;;;;8.13;2.03;;;;;;;;;;6091876;23;20018;-81
2024/01/19 02:57:04;;;;;;;6.33;1.73;;;;;;;;;;6091674;23;20023;-81
2024/01/19 02:59:31;;;;;;;15.57;2.30;;;;;;;;;;6091726;23;20022;-81
2024/01/19 03:01:58;;;;;;;12.80;2.07;;;;;;;;;;6090566;23;20062;-81
2024/01/19 03:04:32;;;;;;;9.60;2.00;;;;;;;;;;6091079;23;20022;-81
2024/01/19 03:06:59;;;;;;;6.73;2.50;;;;;;;;;;6090775;23;20026;-81
2024/01/19 03:09:33;;;;;;;7.00;2.47;;;;;;;;;;6092341;23;20030;-81
2024/01/19 03:12:00;;;;;;;16.47;2.17;;;;;;;;;;6091973;23;20027;-81
2024/01/19 03:14:27;;;;;;;6.10;1.83;;;;;;;;;;6090465;23;20022;-80
2024/01/19 03:17:01;;;;;;;3.53;2.00;;;;;;;;;;6093295;23;20592;-81
2024/01/19 03:19:28;;;;;;;6.67;1.70;;;;;;;;;;6091450;23;20037;-81
2024/01/19 03:22:02;;;;;;;11.67;2.37;;;;;;;;;;6092893;23;20033;-81
2024/01/19 03:24:29;;;;;;;6.17;1.80;;;;;;;;;;6091202;23;20026;-81
2024/01/19 03:26:56;;;;;;;15.20;2.10;;;;;;;;;;6092272;23;20579;-80
2024/01/19 03:29:36;;;;;;;14.77;2.27;;;;;;;;;;6086693;23;20026;-81
2024/01/19 03:32:10;;;;;;;5.50;2.00;;;;;;;;;;6091297;23;20029;-81
2024/01/19 03:34:45;;;;;;;10.57;2.00;;;;;;;;;;6090529;23;20050;-81
2024/01/19 03:37:12;;;;;;;13.40;2.30;;;;;;;;;;6089138;23;20031;-81
2024/01/19 03:39:39;;;;;;;11.23;1.80;;;;;;;;;;6088949;23;20101;-81
2024/01/19 03:42:14;;;;;;;20.43;2.23;;;;;;;;;;6091002;23;20023;-80
2024/01/19 03:44:42;;;;;;;8.70;2.10;;;;;;;;;;6091173;23;20034;-81
2024/01/19 03:47:17;;;;;;;10.40;2.00;;;;;;;;;;6090264;23;20026;-81
2024/01/19 03:49:44;;;;;;;7.00;1.53;;;;;;;;;;6090767;23;20033;-81
2024/01/19 03:52:12;;;;;;;6.63;1.27;;;;;;;;;;6089478;23;20073;-81
2024/01/19 03:54:46;;;;;;;10.00;2.13;;;;;;;;;;6090831;23;20097;-81
2024/01/19 03:57:13;;;;;;;8.30;1.73;;;;;;;;;;6089986;23;20026;-81
2024/01/19 03:59:47;;;;;;;4.13;1.73;;;;;;;;;;6091208;23;20396;-81
2024/01/19 04:02:15;;;;;;;9.67;1.57;;;;;;;;;;6089251;23;20049;-81
2024/01/19 04:04:42;;;;;;;9.87;2.30;;;;;;;;;;6088980;23;20027;-82
2024/01/19 04:07:16;;;;;;;4.47;1.60;;;;;;;;;;6091142;23;20030;-81
2024/01/19 04:09:43;;;;;;;5.97;1.83;;;;;;;;;;6091243;23;20112;-81
2024/01/19 04:12:13;;;;;;;5.10;1.70;;;;;;;;;;6090767;23;20404;-81
2024/01/19 04:14:47;;;;;;;11.47;2.63;;;;;;;;;;6091434;23;20097;-81
2024/01/19 04:17:14;;;;;;;8.17;1.93;;;;;;;;;;6090495;23;20030;-81
2024/01/19 04:19:41;;;;;;;8.27;1.80;;;;;;;;;;6089227;23;20029;-81
2024/01/19 04:22:16;;;;;;;4.93;1.60;;;;;;;;;;6090576;23;20026;-81
2024/01/19 04:24:43;;;;;;;7.83;1.80;;;;;;;;;;6088819;23;20472;-81
2024/01/19 04:27:17;;;;;;;22.27;2.27;;;;;;;;;;6091556;23;20039;-81
2024/01/19 04:29:50;;;;;;;5.57;1.43;;;;;;;;;;6090193;23;20026;-81
2024/01/19 04:32:24;;;;;;;9.40;2.00;;;;;;;;;;6090274;23;20026;-81
2024/01/19 04:34:51;;;;;;;12.90;2.03;;;;;;;;;;6087908;23;20030;-81
2024/01/19 04:37:19;;;;;;;8.63;1.73;;;;;;;;;;6091313;23;20022;-80
2024/01/19 04:39:53;;;;;;;8.30;1.97;;;;;;;;;;6089092;23;20022;-81
2024/01/19 04:42:20;;;;;;;9.63;3.37;;;;;;;;;;6089428;23;20468;-80
2024/01/19 04:44:47;;;;;;;6.73;1.40;;;;;;;;;;6090336;23;20030;-81
2024/01/19 04:47:22;;;;;;;9.43;1.90;;;;;;;;;;6090048;23;20030;-80
2024/01/19 04:49:56;;;;;;;10.87;1.70;;;;;;;;;;6085872;23;20057;-81
2024/01/19 04:52:30;;;;;;;10.27;1.67;;;;;;;;;;6089371;23;20023;-81
2024/01/19 04:55:03;;;;;;;5.63;2.20;;;;;;;;;;6089717;23;20037;-81
2024/01/19 04:57:38;;;;;;;15.57;1.83;;;;;;;;;;6088410;23;20539;-81
2024/01/19 05:00:12;;;;;;;6.83;1.67;;;;;;;;;;6090360;23;20022;-78
2024/01/19 05:02:40;;;;;;;7.93;1.50;;;;;;;;;;6089595;23;20030;-81
2024/01/19 05:05:07;;;;;;;8.23;1.73;;;;;;;;;;6089251;23;20563;-80
2024/01/19 05:07:41;;;;;;;10.80;1.70;;;;;;;;;;6089026;23;20567;-80
2024/01/19 05:10:08;;;;;;;8.83;1.80;;;;;;;;;;6088420;23;20464;-81
2024/01/19 05:12:42;;;;;;;12.53;2.17;;;;;;;;;;6088860;23;20030;-81
2024/01/19 05:15:09;;;;;;;21.87;2.00;;;;;;;;;;6083898;23;20126;-80
2024/01/19 05:17:36;;;;;;;17.47;1.93;;;;;;;;;;6089796;23;20033;-80
2024/01/19 05:20:11;;;;;;;7.83;1.70;;;;;;;;;;6089331;23;20030;-81
2024/01/19 05:22:38;;;;;;;5.87;1.83;;;;;;;;;;6089609;23;20592;-80
2024/01/19 05:25:07;;;;;;;13.17;3.50;;;;;;;;;;6083649;23;20022;-81
2024/01/19 05:27:41;;;;;;;10.27;1.53;;;;;;;;;;6086879;23;20053;-80
2024/01/19 05:30:20;;;;;;;15.73;1.93;;;;;;;;;;6086203;23;20485;-81
2024/01/19 05:32:55;;;;;;;6.13;1.67;;;;;;;;;;6088415;23;20406;-80
2024/01/19 05:35:23;;;;;;;8.97;1.80;;;;;;;;;;6089446;23;20018;-81
2024/01/19 05:37:57;;;;;;;16.30;2.20;;;;;;;;;;6086801;23;20030;-81
2024/01/19 05:40:32;;;;;;;9.77;1.53;;;;;;;;;;6088172;23;20109;-81
2024/01/19 05:42:59;;;;;;;7.93;1.90;;;;;;;;;;6088614;23;20024;-81
2024/01/19 05:45:33;;;;;;;8.10;1.60;;;;;;;;;;6088962;23;20369;-81
2024/01/19 05:48:01;;;;;;;8.33;1.50;;;;;;;;;;6086747;23;20034;-81
2024/01/19 05:50:28;;;;;;;6.13;1.70;;;;;;;;;;6086506;23;20088;-81
2024/01/19 05:53:03;;;;;;;13.60;1.90;;;;;;;;;;6085108;23;20026;-81
2024/01/19 05:55:30;;;;;;;4.13;1.73;;;;;;;;;;6082950;23;20077;-81
2024/01/19 05:58:04;;;;;;;6.77;1.80;;;;;;;;;;6087498;23;20041;-81
2024/01/19 06:00:33;;;;;;;8.40;2.00;;;;;;;;;;6088153;23;20022;-81
2024/01/19 06:03:00;;;;;;;12.20;1.70;;;;;;;;;;6086322;23;20030;-81
2024/01/19 06:05:36;;;;;;;11.30;2.23;;;;;;;;;;6090327;23;20356;-81
2024/01/19 06:08:04;;;;;;;9.93;1.60;;;;;;;;;;6090785;23;20033;-81
2024/01/19 06:10:31;;;;;;;7.30;1.73;;;;;;;;;;6089254;23;20520;-81
2024/01/19 06:13:05;;;;;;;6.80;1.80;;;;;;;;;;6087891;23;20468;-81
2024/01/19 06:15:32;;;;;;;14.77;2.27;;;;;;;;;;6088130;23;20115;-81
2024/01/19 06:17:59;;;;;;;12.57;2.10;;;;;;;;;;6089754;23;20029;-80
2024/01/19 06:20:39;;;;;;;5.33;2.00;;;;;;;;;;6090075;23;20032;-81
2024/01/19 06:23:06;;;;;;;9.07;1.77;;;;;;;;;;6090688;23;20057;-81
2024/01/19 06:25:33;;;;;;;9.87;1.90;;;;;;;;;;6090770;23;20082;-80
2024/01/19 06:28:13;;;;;;;9.53;1.77;;;;;;;;;;6089004;23;20022;-80
2024/01/19 06:30:47;;;;;;;9.43;1.77;;;;;;;;;;6090414;23;20031;-80
2024/01/19 06:33:22;;;;;;;11.47;2.30;;;;;;;;;;6090491;23;20060;-81
2024/01/19 06:35:49;;;;;;;7.50;2.50;;;;;;;;;;6090633;23;20033;-81
2024/01/19 06:38:17;;;;;;;11.23;1.93;;;;;;;;;;6085394;23;20027;-81
2024/01/19 06:40:51;;;;;;;6.10;1.50;;;;;;;;;;6089033;23;20372;-81
2024/01/19 06:43:18;;;;;;;9.53;1.77;;;;;;;;;;6089494;23;20027;-80
2024/01/19 06:45:52;;;;;;;8.10;1.63;;;;;;;;;;6090820;23;20085;-81
2024/01/19 06:48:19;;;;;;;13.63;2.80;;;;;;;;;;6090705;23;20068;-81
2024/01/19 06:50:47;;;;;;;10.63;1.63;;;;;;;;;;6090400;23;20023;-81
2024/01/19 06:53:21;;;;;;;8.63;1.40;;;;;;;;;;6089390;23;20464;-81
2024/01/19 06:55:49;;;;;;;9.80;1.80;;;;;;;;;;6089460;23;20027;-81
2024/01/19 06:58:16;;;;;;;18.80;2.20;;;;;;;;;;6090578;23;20034;-80
2024/01/19 07:00:50;;;;;;;10.30;1.80;;;;;;;;;;6089980;23;20026;-81
2024/01/19 07:03:17;;;;;;;9.93;1.80;;;;;;;;;;6091496;23;20030;-81
2024/01/19 07:05:44;;;;;;;11.50;1.93;;;;;;;;;;6091115;23;20050;-81
2024/01/19 07:08:19;;;;;;;9.50;1.43;;;;;;;;;;6091016;23;20106;-81
2024/01/19 07:10:46;;;;;;;8.70;1.80;;;;;;;;;;6092171;23;20093;-81
2024/01/19 07:13:20;;;;;;;13.93;1.90;;;;;;;;;;6092458;23;20029;-81
2024/01/19 07:15:47;;;;;;;11.03;2.17;;;;;;;;;;6090900;23;20049;-81
2024/01/19 07:18:14;;;;;;;14.57;2.23;;;;;;;;;;6092495;23;20033;-81
2024/01/19 07:20:48;;;;;;;10.93;1.90;;;;;;;;;;6091014;23;20129;-80
2024/01/19 07:23:15;;;;;;;8.30;1.93;;;;;;;;;;6091108;23;20032;-81
2024/01/19 07:25:42;;;;;;;9.07;1.70;;;;;;;;;;6092773;23;20081;-80
2024/01/19 07:28:23;;;;;;;6.30;1.90;;;;;;;;;;6091933;23;20527;-81
2024/01/19 07:30:57;;;;;;;5.30;1.80;;;;;;;;;;6089958;23;20547;-80
2024/01/19 07:33:31;;;;;;;16.33;2.37;;;;;;;;;;6090249;23;20472;-81
2024/01/19 07:36:01;;;;;;;10.80;2.07;;;;;;;;;;6091228;23;20037;-81
2024/01/19 07:38:28;;;;;;;15.83;2.90;;;;;;;;;;6091873;23;20030;-81
2024/01/19 07:41:06;;;;;;;6.80;1.80;;;;;;;;;;6091298;23;20057;-80
2024/01/19 07:43:40;;;;;;;6.70;1.30;;;;;;;;;;6091689;23;20030;-81
2024/01/19 07:46:07;;;;;;;8.20;2.03;;;;;;;;;;6091209;23;20022;-81
2024/01/19 07:48:34;;;;;;;15.27;2.20;;;;;;;;;;6090754;23;20034;-81
2024/01/19 07:51:09;;;;;;;6.33;1.37;;;;;;;;;;6089354;23;20031;-80
2024/01/19 07:53:36;;;;;;;9.33;2.10;;;;;;;;;;6091832;23;20019;-81
2024/01/19 07:56:10;;;;;;;8.77;1.70;;;;;;;;;;6090337;23;20109;-81
2024/01/19 07:58:37;;;;;;;9.73;1.90;;;;;;;;;;6092669;23;20022;-81
2024/01/19 08:01:04;;;;;;;;;;;;;;;;;;6090177;23;20026;-81
2024/01/19 08:03:39;;;;;;;18.63;2.33;;;;;;;;;;6089665;23;19992;-81
2024/01/19 08:06:06;;;;;;;11.07;2.37;;;;;;;;;;6090618;23;20033;-81
2024/01/19 08:08:40;;;;;;;6.67;1.70;;;;;;;;;;6091594;23;20752;-80
2024/01/19 08:11:07;;;;;;;9.50;2.00;;;;;;;;;;6091906;23;20103;-81
2024/01/19 08:13:34;;;;;;;;;;;;;;;;;;6091004;23;20081;-81
2024/01/19 08:16:08;;;;;;;9.77;1.80;;;;;;;;;;6090516;23;19944;-81
2024/01/19 08:18:35;;;;;;;10.40;1.87;;;;;;;;;;6091760;23;20029;-81
2024/01/19 08:21:09;;;;;;;7.73;1.87;;;;;;;;;;6091172;23;20364;-81
2024/01/19 08:23:36;;;;;;;9.93;2.00;;;;;;;;;;6090278;23;20098;-81
2024/01/19 08:26:06;;;;;;;5.93;1.93;;;;;;;;;;6091117;23;20028;-81
2024/01/19 08:28:46;;;;;;;4.30;1.70;;;;;;;;;;6087128;23;20325;-81
2024/01/19 08:31:20;;;;;;;4.83;1.80;;;;;;;;;;6090936;23;20018;-82
2024/01/19 08:33:54;;;;;;;7.80;1.80;;;;;;;;;;6091237;23;20030;-80
2024/01/19 08:36:24;;;;;;;8.47;2.10;;;;;;;;;;6089339;23;20357;-81
2024/01/19 08:38:51;;;;;;;9.80;1.90;;;;;;;;;;6090301;23;20030;-78
2024/01/19 08:41:25;;;;;;;10.80;1.80;;;;;;;;;;6067350;23;20022;-78
2024/01/19 08:43:52;;;;;;;17.03;2.17;;;;;;;;;;6091522;23;20475;-79
2024/01/19 08:46:26;;;;;;;8.70;1.90;;;;;;;;;;6090699;23;20026;-78
2024/01/19 08:48:53;;;;;;;9.93;1.93;;;;;;;;;;6089910;23;20334;-78
2024/01/19 08:51:21;;;;;;;7.93;2.10;;;;;;;;;;6090980;23;20073;-78
2024/01/19 08:53:55;;;;;;;8.90;1.73;;;;;;;;;;6090370;23;20022;-79
2024/01/19 08:56:22;;;;;;;8.63;1.70;;;;;;;;;;6089771;23;20495;-79
2024/01/19 08:58:57;;;;;;;9.83;2.00;;;;;;;;;;6089051;23;20049;-78
2024/01/19 09:01:24;;;;;;;6.93;2.00;;;;;;;;;;6088542;23;20033;-79
2024/01/19 09:03:51;;;;;;;9.27;2.10;;;;;;;;;;6090649;23;20806;-79
2024/01/19 09:06:26;;;;;;;8.93;1.93;;;;;;;;;;6089589;23;20536;-79
2024/01/19 09:08:57;;;;;;;8.63;2.77;;;;;;;;;;6091322;23;20029;-79
2024/01/19 09:11:34;;;;;;;10.67;2.30;;;;;;;;;;6089451;23;20053;-79
2024/01/19 09:14:02;;;;;;;14.77;2.33;;;;;;;;;;6090690;23;20367;-78
2024/01/19 09:16:29;;;;;;;10.97;2.03;;;;;;;;;;6085302;23;20041;-78
2024/01/19 09:19:03;;;;;;;13.03;2.27;;;;;;;;;;6090243;23;20030;-79
2024/01/19 09:21:30;;;;;;;6.40;1.93;;;;;;;;;;6090693;23;20028;-79
2024/01/19 09:23:57;;;;;;;;;;;;;;;;;;6089893;23;20036;-79
2024/01/19 09:26:31;;;;;;;6.87;1.70;;;;;;;;;;6091004;23;19921;-78
2024/01/19 09:28:58;;;;;;;;;;;;;;;;;;6091417;23;20034;-78
2024/01/19 09:31:38;;;;;;;11.90;2.00;;;;;;;;;;6090455;23;19941;-78
2024/01/19 09:34:06;;;;;;;10.00;4.03;;;;;;;;;;6090910;23;20029;-78
2024/01/19 09:36:40;;;;;;;15.13;2.53;;;;;;;;;;6090772;23;20073;-79
2024/01/19 09:39:08;;;;;;;15.13;3.23;;;;;;;;;;6089843;23;20093;-80
2024/01/19 09:41:38;;;;;;;11.43;3.20;;;;;;;;;;6089734;23;20111;-78
2024/01/19 09:44:12;;;;;;;12.37;2.70;;;;;;;;;;6088340;23;20468;-79
2024/01/19 09:46:52;;;;;;;8.43;2.43;;;;;;;;;;6088989;23;20026;-79
2024/01/19 09:49:44;;;;;;;9.23;2.07;;;;;;;;;;6088410;23;20460;-78
2024/01/19 09:52:31;;;;;;;17.33;2.10;;;;;;;;;;6090888;23;20033;-78
2024/01/19 09:55:05;;;;;;;17.00;2.27;;;;;;;;;;6088110;23;20085;-78
2024/01/19 09:57:32;;;;;;;;;;;;;;;;;;6090136;23;20026;-79
2024/01/19 09:59:59;;;;;;;15.63;2.27;;;;;;;;;;6090331;23;19977;-79
2024/01/19 10:02:34;;;;;;;10.53;2.10;;;;;;;;;;6089704;23;20030;-79
2024/01/19 10:05:01;;;;;;;14.07;3.37;;;;;;;;;;6089759;23;20037;-79
2024/01/19 10:07:29;;;;;;;14.10;2.47;;;;;;;;;;6088529;23;20325;-81
2024/01/19 10:10:03;;;;;;;17.07;2.00;;;;;;;;;;6089234;23;20078;-79
2024/01/19 10:12:32;;;;;;;11.70;2.40;;;;;;;;;;6091242;23;20034;-79
2024/01/19 10:15:06;;;;;;;18.73;2.72;;;;;;;;;;6090785;23;20110;-79
2024/01/19 10:17:35;;;;;;;11.03;1.73;;;;;;;;;;6090198;23;20034;-79
2024/01/19 10:20:13;;;;;;;21.60;4.03;;;;;;;;;;6088025;23;20543;-79
2024/01/19 10:22:40;;;;;;;5.73;1.60;;;;;;;;;;6089807;23;20751;-79
2024/01/19 10:25:12;;;;;;;13.60;1.67;;;;;;;;;;6090282;23;20033;-79
2024/01/19 10:27:47;;;;;;;12.00;2.28;;;;;;;;;;6090021;23;20023;-79
2024/01/19 10:30:23;;;;;;;16.80;3.17;;;;;;;;;;6088521;23;20093;-79
2024/01/19 10:33:04;;;;;;;11.88;2.63;;;;;;;;;;6088576;23;20030;-79
2024/01/19 10:35:32;;;;;;;13.70;2.75;;;;;;;;;;6089851;23;20763;-79
2024/01/19 10:38:08;;;;;;;10.85;2.00;;;;;;;;;;6089815;23;20027;-79
2024/01/19 10:40:35;;;;;;;19.98;2.50;;;;;;;;;;6092250;23;20033;-79
2024/01/19 10:43:22;;;;;;;12.63;2.17;;;;;;;;;;6090585;23;20247;-79
2024/01/19 10:45:50;;;;;;;13.60;2.47;;;;;;;;;;6091576;23;20027;-79
2024/01/19 10:48:26;;;;;;;18.10;3.35;;;;;;;;;;6092725;23;20026;-79
2024/01/19 10:51:04;;;;;;;14.15;2.08;;;;;;;;;;6092060;23;20030;-79
2024/01/19 10:53:38;;;;;;;17.55;2.50;;;;;;;;;;6090878;23;20027;-79
2024/01/19 10:56:17;;;;;;;10.85;2.10;;;;;;;;;;6092417;23;20360;-79
2024/01/19 10:58:52;;;;;;;13.40;2.03;;;;;;;;;;6091904;23;20098;-79
2024/01/19 11:01:25;;;;;;;18.83;2.20;;;;;;;;;;6092096;23;20390;-79
2024/01/19 11:04:00;;;;;;;16.42;2.58;;;;;;;;;;6089884;23;20344;-78
2024/01/19 11:06:27;;;;;;;11.55;2.30;;;;;;;;;;6091028;23;20499;-79
2024/01/19 11:09:02;;;;;;;16.98;2.20;;;;;;;;;;6089180;23;20026;-79
2024/01/19 11:11:31;;;;;;;6.95;2.20;;;;;;;;;;6090518;23;20026;-79
2024/01/19 11:14:00;;;;;;;6.97;1.90;;;;;;;;;;6089145;23;20018;-79
2024/01/19 11:16:38;;;;;;;14.13;2.45;;;;;;;;;;6090370;23;20121;-79
2024/01/19 11:19:06;;;;;;;7.13;2.08;;;;;;;;;;6087357;23;20058;-77
2024/01/19 11:21:41;;;;;;;8.80;2.10;;;;;;;;;;6090734;23;20026;-77
2024/01/19 11:24:09;;;;;;;10.07;1.90;;;;;;;;;;6091305;23;20026;-77
2024/01/19 11:26:43;;;;;;;8.38;1.90;;;;;;;;;;6092330;23;20553;-77
2024/01/19 11:29:22;;;;;;;8.85;2.08;;;;;;;;;;6090799;23;20032;-76
2024/01/19 11:31:58;;;;;;;10.98;1.90;;;;;;;;;;6092024;23;20460;-77
2024/01/19 11:34:45;;;;;;;12.05;2.00;;;;;;;;;;6091221;23;20101;-75
2024/01/19 11:37:38;;;;;;;11.35;2.00;;;;;;;;;;6090234;23;20026;-77
2024/01/19 11:40:06;;;;;;;9.88;1.90;;;;;;;;;;6091083;23;20023;-77
2024/01/19 11:42:45;;;;;;;8.50;1.67;;;;;;;;;;6090386;23;20038;-77
2024/01/19 11:45:28;;;;;;;14.10;1.90;;;;;;;;;;6089552;23;20093;-77
2024/01/19 11:47:56;;;;;;;10.00;2.55;;;;;;;;;;6089635;23;20091;-77
2024/01/19 11:50:42;;;;;;;14.00;2.10;;;;;;;;;;6091320;23;20045;-77
2024/01/19 11:53:09;;;;;;;12.88;2.10;;;;;;;;;;6091684;23;20034;-78
2024/01/19 11:55:45;;;;;;;10.65;1.92;;;;;;;;;;6091862;23;20026;-77
2024/01/19 11:58:29;;;;;;;10.13;1.85;;;;;;;;;;6091453;23;20480;-77
2024/01/19 12:01:03;;;;;;;6.28;2.05;;;;;;;;;;6091689;23;20023;-77
2024/01/19 12:03:31;;;;;;;15.77;2.58;;;;;;;;;;6091737;23;20037;-77
2024/01/19 12:05:59;;;;;;;;;;;;;;;;;;6089134;23;20088;-77
2024/01/19 12:08:33;;;;;;;6.85;1.63;;;;;;;;;;6091561;23;19945;-77
2024/01/19 12:11:00;;;;;;;;;;;;;;;;;;6091128;23;20027;-77
2024/01/19 12:13:36;;;;;;;14.52;2.17;;;;;;;;;;6091089;23;19945;-77
2024/01/19 12:16:06;;;;;;;7.78;1.77;;;;;;;;;;6088768;23;20073;-77
2024/01/19 12:18:40;;;;;;;15.18;2.20;;;;;;;;;;6091511;23;20030;-77
2024/01/19 12:21:08;;;;;;;10.23;1.90;;;;;;;;;;6089762;23;20026;-77
2024/01/19 12:23:39;;;;;;;8.13;2.40;;;;;;;;;;6090367;23;20049;-77
2024/01/19 12:26:20;;;;;;;12.70;1.60;;;;;;;;;;6088764;23;20025;-77
2024/01/19 12:28:51;;;;;;;14.30;2.28;;;;;;;;;;6090007;23;20089;-77
2024/01/19 12:31:36;;;;;;;7.97;1.20;;;;;;;;;;6089960;23;20348;-77
2024/01/19 12:34:11;;;;;;;7.53;1.65;;;;;;;;;;6089667;23;20030;-77
2024/01/19 12:36:45;;;;;;;11.75;1.95;;;;;;;;;;6090202;23;20409;-77
2024/01/19 12:39:14;;;;;;;7.32;1.95;;;;;;;;;;6091349;23;20033;-77
2024/01/19 12:41:42;;;;;;;10.95;2.50;;;;;;;;;;6090657;23;20029;-77
2024/01/19 12:44:17;;;;;;;16.63;2.13;;;;;;;;;;6091409;23;20034;-77
2024/01/19 12:46:48;;;;;;;10.40;2.13;;;;;;;;;;6091131;23;20023;-77
2024/01/19 12:49:22;;;;;;;19.65;2.25;;;;;;;;;;6089903;23;20650;-77
2024/01/19 12:51:49;;;;;;;12.63;2.47;;;;;;;;;;6090190;23;20038;-77
2024/01/19 12:54:18;;;;;;;;;;;;;;;;;;6090848;23;20042;-77
2024/01/19 12:56:52;;;;;;;10.50;1.60;;;;;;;;;;6090596;23;19925;-77
2024/01/19 12:59:22;;;;;;;9.05;1.52;;;;;;;;;;6088636;23;20033;-78
2024/01/19 13:01:50;;;;;;;7.60;1.98;;;;;;;;;;6090319;23;20654;-77
2024/01/19 13:04:24;;;;;;;8.80;1.83;;;;;;;;;;6088840;23;20034;-77
2024/01/19 13:06:58;;;;;;;13.50;2.80;;;;;;;;;;6086271;23;20031;-78
2024/01/19 13:09:32;;;;;;;11.60;1.95;;;;;;;;;;6090404;23;20026;-76
2024/01/19 13:12:12;;;;;;;5.97;1.85;;;;;;;;;;6089755;23;20030;-77
2024/01/19 13:14:46;;;;;;;13.13;1.95;;;;;;;;;;6089911;23;20630;-77
2024/01/19 13:17:26;;;;;;;13.70;2.17;;;;;;;;;;6090463;23;20022;-77
2024/01/19 13:19:54;;;;;;;9.20;1.75;;;;;;;;;;6089211;23;20116;-78
2024/01/19 13:22:28;;;;;;;7.75;1.70;;;;;;;;;;6090436;23;20097;-77
2024/01/19 13:24:55;;;;;;;7.57;1.58;;;;;;;;;;6089184;23;20497;-78
2024/01/19 13:27:22;;;;;;;9.90;1.98;;;;;;;;;;6089987;23;20026;-77
2024/01/19 13:30:03;;;;;;;7.57;1.65;;;;;;;;;;6090105;23;20098;-78
2024/01/19 13:32:37;;;;;;;14.23;2.20;;;;;;;;;;6090350;23;20030;-77
2024/01/19 13:35:11;;;;;;;9.57;1.65;;;;;;;;;;6087840;23;20531;-77
2024/01/19 13:37:38;;;;;;;9.63;3.10;;;;;;;;;;6089766;23;20110;-77
2024/01/19 13:40:06;;;;;;;8.43;1.70;;;;;;;;;;6089591;23;20105;-77
2024/01/19 13:42:40;;;;;;;14.50;1.98;;;;;;;;;;6089474;23;20242;-77
2024/01/19 13:45:09;;;;;;;14.55;1.88;;;;;;;;;;6090439;23;20542;-77
2024/01/19 13:47:43;;;;;;;12.50;2.05;;;;;;;;;;6090836;23;20352;-77
2024/01/19 13:50:10;;;;;;;16.92;2.28;;;;;;;;;;6089866;23;20026;-77
2024/01/19 13:52:39;;;;;;;6.90;1.55;;;;;;;;;;6089953;23;20480;-78
2024/01/19 13:55:15;;;;;;;7.93;1.60;;;;;;;;;;6090291;23;20479;-77
2024/01/19 13:57:42;;;;;;;13.85;2.45;;;;;;;;;;6090124;23;20030;-77
2024/01/19 14:00:16;;;;;;;14.95;2.20;;;;;;;;;;6089935;23;20098;-78
2024/01/19 14:02:43;;;;;;;19.58;1.88;;;;;;;;;;6091578;23;20070;-77
2024/01/19 14:05:10;;;;;;;14.25;2.17;;;;;;;;;;6090107;23;20563;-77
2024/01/19 14:07:45;;;;;;;17.98;3.83;;;;;;;;;;6091202;23;20121;-77
2024/01/19 14:10:12;;;;;;;;;;;;;;;;;;6088486;23;20072;-77
2024/01/19 14:12:53;;;;;;;11.88;2.83;;;;;;;;;;6093088;23;19921;-77
2024/01/19 14:15:21;;;;;;;13.50;2.33;;;;;;;;;;6091379;23;20030;-77
2024/01/19 14:18:00;;;;;;;9.05;1.75;;;;;;;;;;6091825;23;20022;-77
2024/01/19 14:20:27;;;;;;;12.70;2.13;;;;;;;;;;6091284;23;20030;-77
2024/01/19 14:22:54;;;;;;;9.52;2.33;;;;;;;;;;6092619;23;20279;-78
2024/01/19 14:25:27;;;;;;;16.40;1.95;;;;;;;;;;6091420;23;20034;-77
2024/01/19 14:27:55;;;;;;;11.38;2.15;;;;;;;;;;6091758;23;20023;-77
2024/01/19 14:30:35;;;;;;;13.05;2.10;;;;;;;;;;6092032;23;20026;-77
2024/01/19 14:33:03;;;;;;;10.05;1.55;;;;;;;;;;6092042;23;20026;-77
2024/01/19 14:35:39;;;;;;;16.20;2.95;;;;;;;;;;6090632;23;20535;-77
2024/01/19 14:38:07;;;;;;;11.48;2.08;;;;;;;;;;6091253;23;20038;-77
2024/01/19 14:40:35;;;;;;;13.38;2.15;;;;;;;;;;6091276;23;20022;-78
2024/01/19 14:43:10;;;;;;;13.70;2.28;;;;;;;;;;6091654;23;20081;-77
2024/01/19 14:45:38;;;;;;;22.75;2.70;;;;;;;;;;6090830;23;20022;-77
2024/01/19 14:48:12;;;;;;;19.55;2.53;;;;;;;;;;6092005;23;20030;-77
2024/01/19 14:50:40;;;;;;;15.18;2.13;;;;;;;;;;6088656;23;20479;-77
2024/01/19 14:53:08;;;;;;;23.30;2.00;;;;;;;;;;6091138;23;20034;-77
2024/01/19 14:55:42;;;;;;;19.08;2.72;;;;;;;;;;6089160;23;20828;-77
2024/01/19 14:58:09;;;;;;;10.35;2.42;;;;;;;;;;6089920;23;20646;-78
2024/01/19 15:00:44;;;;;;;17.38;2.60;;;;;;;;;;6090929;23;20026;-78
2024/01/19 15:03:11;;;;;;;17.13;2.85;;;;;;;;;;6091529;23;20569;-78
2024/01/19 15:05:38;;;;;;;16.63;2.85;;;;;;;;;;6090627;23;20691;-78